createdAt,value
2024-02-24T00:01:53.483Z,91.70
2024-02-24T00:04:20.294Z,91.70
2024-02-24T00:06:47.139Z,91.80
2024-02-24T00:09:13.896Z,91.90
2024-02-24T00:11:40.878Z,91.80
2024-02-24T00:14:07.725Z,91.80
2024-02-24T00:16:34.561Z,91.90
2024-02-24T00:19:01.385Z,92.40
2024-02-24T00:21:28.491Z,92.20
2024-02-24T00:23:55.399Z,94.10
2024-02-24T00:26:22.182Z,94.10
2024-02-24T00:28:49.844Z,92.60
2024-02-24T00:31:16.568Z,92.30
2024-02-24T00:33:44.712Z,92.20
2024-02-24T00:36:11.705Z,92.20
2024-02-24T00:38:38.700Z,92.30
2024-02-24T00:41:05.618Z,92.40
2024-02-24T00:43:32.350Z,92.40
2024-02-24T00:46:00.042Z,92.30
2024-02-24T00:48:29.061Z,93.40
2024-02-24T00:50:55.924Z,93.30
2024-02-24T00:53:22.816Z,93.30
2024-02-24T00:55:49.588Z,93.20
2024-02-24T00:58:16.301Z,93.20
2024-02-24T01:00:43.017Z,93.60
2024-02-24T01:03:09.747Z,94.50
2024-02-24T01:05:36.576Z,93.80
2024-02-24T01:08:03.567Z,93.30
2024-02-24T01:10:30.377Z,93.60
2024-02-24T01:12:57.199Z,93.40
2024-02-24T01:15:25.693Z,93.90
2024-02-24T01:17:57.132Z,94.10
2024-02-24T01:20:26.516Z,93.80
2024-02-24T01:22:55.066Z,93.80
2024-02-24T01:25:22.312Z,93.80
2024-02-24T01:27:50.791Z,93.70
2024-02-24T01:30:18.024Z,93.50
2024-02-24T01:32:44.968Z,93.40
2024-02-24T01:35:11.877Z,93.50
2024-02-24T01:37:38.656Z,93.30
2024-02-24T01:40:06.864Z,93.40
2024-02-24T01:42:33.707Z,93.80
2024-02-24T01:45:00.873Z,93.80
2024-02-24T01:47:27.736Z,93.90
2024-02-24T01:49:56.602Z,94.00
2024-02-24T01:52:24.684Z,94.10
2024-02-24T01:54:56.493Z,94.20
2024-02-24T01:57:26.538Z,94.30
2024-02-24T01:59:54.533Z,94.70
2024-02-24T02:02:22.729Z,94.70
2024-02-24T02:04:49.546Z,95.00
2024-02-24T02:07:18.901Z,94.90
2024-02-24T02:09:58.770Z,95.20
2024-02-24T02:12:26.732Z,95.50
2024-02-24T02:14:53.658Z,95.60
2024-02-24T02:17:21.306Z,95.30
2024-02-24T02:19:48.262Z,95.20
2024-02-24T02:22:18.926Z,95.20
2024-02-24T02:24:46.134Z,95.20
2024-02-24T02:27:13.350Z,95.30
2024-02-24T02:29:40.145Z,95.30
2024-02-24T02:32:09.167Z,95.60
2024-02-24T02:34:36.218Z,95.60
2024-02-24T02:37:03.113Z,95.90
2024-02-24T02:39:30.022Z,96.20
2024-02-24T02:41:56.727Z,96.80
2024-02-24T02:44:25.060Z,97.20
2024-02-24T02:46:52.082Z,97.10
2024-02-24T02:49:19.408Z,96.80
2024-02-24T02:51:46.723Z,96.40
2024-02-24T02:54:13.485Z,96.10
2024-02-24T02:56:40.220Z,96.40
2024-02-24T02:59:07.050Z,96.30
2024-02-24T03:01:33.801Z,96.30
2024-02-24T03:04:00.542Z,96.40
2024-02-24T03:06:27.367Z,96.60
2024-02-24T03:08:56.967Z,97.00
2024-02-24T03:11:24.544Z,97.20
2024-02-24T03:13:51.420Z,96.90
2024-02-24T03:16:19.664Z,96.90
2024-02-24T03:18:46.771Z,96.80
2024-02-24T03:21:23.849Z,96.80
2024-02-24T03:23:50.528Z,96.80
2024-02-24T03:26:17.280Z,97.00
2024-02-24T03:28:43.983Z,97.00
2024-02-24T03:31:10.655Z,97.20
2024-02-24T03:33:37.452Z,97.10
2024-02-24T03:36:04.469Z,97.00
2024-02-24T03:38:31.323Z,97.10
2024-02-24T03:40:59.165Z,97.20
2024-02-24T03:43:25.884Z,97.40
2024-02-24T03:45:52.601Z,97.50
2024-02-24T03:48:19.497Z,97.50
2024-02-24T03:50:46.356Z,97.60
2024-02-24T03:53:14.693Z,97.60
2024-02-24T03:55:41.379Z,97.70
2024-02-24T03:58:08.731Z,97.70
2024-02-24T04:00:38.579Z,97.50
2024-02-24T04:03:05.624Z,97.30
2024-02-24T04:05:32.370Z,97.60
2024-02-24T04:07:59.164Z,97.60
2024-02-24T04:10:25.868Z,97.40
2024-02-24T04:12:52.542Z,97.70
2024-02-24T04:15:20.507Z,97.70
2024-02-24T04:17:47.838Z,97.70
2024-02-24T04:20:15.636Z,97.60
2024-02-24T04:22:42.740Z,97.60
2024-02-24T04:25:10.254Z,97.50
2024-02-24T04:27:37.467Z,97.40
2024-02-24T04:30:04.641Z,97.60
2024-02-24T04:32:31.487Z,97.50
2024-02-24T04:34:58.145Z,97.90
2024-02-24T04:37:24.812Z,97.90
2024-02-24T04:39:53.256Z,97.90
2024-02-24T04:42:20.283Z,97.90
2024-02-24T04:44:50.598Z,98.00
2024-02-24T04:47:19.374Z,98.50
2024-02-24T04:49:46.093Z,98.80
2024-02-24T04:52:12.851Z,98.80
2024-02-24T04:54:39.548Z,99.00
2024-02-24T04:57:06.212Z,99.40
2024-02-24T04:59:32.909Z,99.50
2024-02-24T05:01:59.594Z,99.40
2024-02-24T05:04:26.375Z,99.50
2024-02-24T05:06:53.336Z,99.40
2024-02-24T05:09:20.188Z,99.40
2024-02-24T05:11:47.376Z,99.30
2024-02-24T05:14:17.398Z,99.20
2024-02-24T05:16:44.200Z,99.60
2024-02-24T05:19:11.025Z,99.60
2024-02-24T05:21:38.006Z,99.30
2024-02-24T05:24:05.234Z,99.10
2024-02-24T05:26:32.020Z,99.00
2024-02-24T05:28:59.396Z,98.90
2024-02-24T05:31:26.193Z,98.90
2024-02-24T05:33:54.659Z,98.60
2024-02-24T05:36:21.543Z,98.90
2024-02-24T05:38:48.429Z,99.50
2024-02-24T05:41:15.274Z,99.70
2024-02-24T05:43:42.077Z,99.80
2024-02-24T05:46:08.795Z,99.40
2024-02-24T05:48:38.397Z,99.30
2024-02-24T05:51:10.969Z,99.60
2024-02-24T05:53:38.706Z,99.70
2024-02-24T05:56:06.030Z,99.90
2024-02-24T05:58:32.784Z,99.80
2024-02-24T06:01:00.159Z,99.90
2024-02-24T06:03:27.351Z,99.80
2024-02-24T06:05:54.282Z,99.60
2024-02-24T06:08:21.156Z,99.60
2024-02-24T06:10:48.168Z,99.60
2024-02-24T06:13:15.141Z,99.90
2024-02-24T06:15:41.937Z,99.90
2024-02-24T06:18:08.854Z,99.90
2024-02-24T06:20:35.657Z,99.90
2024-02-24T06:23:02.644Z,99.90
2024-02-24T06:25:29.443Z,99.90
2024-02-24T06:27:56.119Z,99.90
2024-02-24T06:30:22.837Z,99.90
2024-02-24T06:32:49.573Z,99.90
2024-02-24T06:35:16.337Z,99.90
2024-02-24T06:37:43.422Z,99.90
2024-02-24T06:40:12.435Z,99.90
2024-02-24T06:42:39.748Z,99.90
2024-02-24T06:45:06.915Z,99.90
2024-02-24T06:47:33.683Z,99.90
2024-02-24T06:50:00.516Z,99.90
2024-02-24T06:52:27.201Z,99.90
2024-02-24T06:54:54.058Z,99.90
2024-02-24T06:57:20.852Z,99.90
2024-02-24T06:59:48.610Z,99.90
2024-02-24T07:02:15.625Z,99.90
2024-02-24T07:04:43.568Z,99.90
2024-02-24T07:07:10.654Z,99.90
2024-02-24T07:09:37.822Z,99.90
2024-02-24T07:12:05.037Z,99.90
2024-02-24T07:14:31.939Z,99.90
2024-02-24T07:16:58.643Z,99.90
2024-02-24T07:19:25.499Z,99.90
2024-02-24T07:21:52.251Z,99.90
2024-02-24T07:24:19.089Z,99.90
2024-02-24T07:26:50.443Z,99.90
2024-02-24T07:29:17.852Z,99.90
2024-02-24T07:31:44.632Z,99.90
2024-02-24T07:34:11.775Z,99.90
2024-02-24T07:36:38.646Z,99.90
2024-02-24T07:39:06.059Z,99.90
2024-02-24T07:41:32.894Z,99.90
2024-02-24T07:43:59.659Z,99.90
2024-02-24T07:46:32.673Z,99.90
2024-02-24T07:49:01.433Z,99.90
2024-02-24T07:51:29.438Z,99.90
2024-02-24T07:53:57.391Z,99.90
2024-02-24T07:56:25.301Z,99.90
2024-02-24T07:58:52.572Z,99.90
2024-02-24T08:01:19.458Z,99.90
2024-02-24T08:03:46.538Z,99.90
2024-02-24T08:06:13.337Z,99.90
2024-02-24T08:08:40.514Z,99.90
2024-02-24T08:11:08.191Z,99.90
2024-02-24T08:13:42.828Z,99.90
2024-02-24T08:16:10.651Z,99.90
2024-02-24T08:18:37.597Z,99.90
2024-02-24T08:21:08.162Z,99.90
2024-02-24T08:23:38.167Z,99.90
2024-02-24T08:26:05.399Z,99.90
2024-02-24T08:28:32.179Z,99.90
2024-02-24T08:31:01.018Z,99.90
2024-02-24T08:33:28.379Z,99.90
2024-02-24T08:35:55.367Z,99.90
2024-02-24T08:38:22.317Z,99.90
2024-02-24T08:40:49.283Z,99.90
2024-02-24T08:43:16.152Z,99.90
2024-02-24T08:45:43.046Z,99.90
2024-02-24T08:48:13.971Z,99.90
2024-02-24T08:50:41.816Z,99.90
2024-02-24T08:53:08.799Z,99.20
2024-02-24T08:55:35.680Z,99.40
2024-02-24T08:58:02.525Z,98.20
2024-02-24T09:00:29.342Z,97.20
2024-02-24T09:02:56.188Z,96.30
2024-02-24T09:05:23.226Z,96.00
2024-02-24T09:07:50.107Z,95.70
2024-02-24T09:10:17.056Z,95.50
2024-02-24T09:12:43.877Z,94.90
2024-02-24T09:15:10.877Z,95.40
2024-02-24T09:17:37.907Z,95.10
2024-02-24T09:20:05.141Z,94.70
2024-02-24T09:22:32.007Z,94.50
2024-02-24T09:24:58.823Z,93.10
2024-02-24T09:27:25.679Z,93.80
2024-02-24T09:29:52.566Z,93.20
2024-02-24T09:32:19.783Z,92.30
2024-02-24T09:34:46.724Z,92.50
2024-02-24T09:37:13.638Z,91.60
2024-02-24T09:39:41.889Z,91.50
2024-02-24T09:42:10.800Z,90.70
2024-02-24T09:44:38.228Z,90.40
2024-02-24T09:47:06.602Z,90.60
2024-02-24T09:49:33.443Z,90.10
2024-02-24T09:52:01.388Z,89.10
2024-02-24T09:54:29.008Z,90.20
2024-02-24T09:56:57.526Z,87.30
2024-02-24T09:59:25.958Z,87.00
2024-02-24T10:01:52.939Z,83.50
2024-02-24T10:04:20.498Z,82.80
2024-02-24T10:06:47.442Z,83.70
2024-02-24T10:09:14.291Z,83.40
2024-02-24T10:11:41.828Z,81.90
2024-02-24T10:14:09.533Z,81.70
2024-02-24T10:16:38.355Z,82.20
2024-02-24T10:19:06.722Z,81.20
2024-02-24T10:21:34.602Z,80.40
2024-02-24T10:24:02.093Z,82.80
2024-02-24T10:26:29.243Z,81.50
2024-02-24T10:28:56.323Z,80.10
2024-02-24T10:31:28.238Z,81.30
2024-02-24T10:33:56.313Z,78.90
2024-02-24T10:36:27.115Z,79.10
2024-02-24T10:38:56.214Z,79.10
2024-02-24T10:41:26.742Z,78.90
2024-02-24T10:44:09.746Z,78.50
2024-02-24T10:46:42.412Z,78.30
2024-02-24T10:49:10.677Z,78.10
2024-02-24T10:51:38.309Z,78.90
2024-02-24T10:54:13.679Z,78.50
2024-02-24T10:56:41.357Z,77.30
2024-02-24T10:59:12.708Z,77.50
2024-02-24T11:01:44.755Z,77.10
2024-02-24T11:04:13.294Z,76.70
2024-02-24T11:06:48.947Z,78.00
2024-02-24T11:09:36.103Z,76.80
2024-02-24T11:12:09.157Z,76.80
2024-02-24T11:14:43.857Z,76.00
2024-02-24T11:17:12.163Z,76.70
2024-02-24T11:19:46.906Z,77.10
2024-02-24T11:22:22.264Z,77.50
2024-02-24T11:25:05.609Z,76.60
2024-02-24T11:27:37.609Z,77.00
2024-02-24T11:30:39.715Z,74.30
2024-02-24T11:33:30.790Z,72.30
2024-02-24T11:35:59.321Z,74.10
2024-02-24T11:38:26.641Z,72.40
2024-02-24T11:40:54.129Z,73.60
2024-02-24T11:43:21.406Z,71.10
2024-02-24T11:45:52.267Z,70.20
2024-02-24T11:48:20.650Z,70.80
2024-02-24T11:50:48.765Z,69.10
2024-02-24T11:53:17.754Z,69.30
2024-02-24T11:55:48.589Z,69.20
2024-02-24T11:58:16.403Z,69.20
2024-02-24T12:00:43.359Z,69.10
2024-02-24T12:03:15.466Z,68.80
2024-02-24T12:05:43.315Z,69.50
2024-02-24T12:08:13.631Z,68.90
2024-02-24T12:10:41.352Z,68.40
2024-02-24T12:13:11.078Z,67.40
2024-02-24T12:15:55.982Z,67.80
2024-02-24T12:18:26.072Z,66.90
2024-02-24T12:20:54.601Z,66.80
2024-02-24T12:23:23.444Z,66.50
2024-02-24T12:25:50.469Z,66.50
2024-02-24T12:28:18.944Z,66.50
2024-02-24T12:30:46.380Z,66.00
2024-02-24T12:33:18.608Z,66.40
2024-02-24T12:35:49.117Z,67.60
2024-02-24T12:38:19.586Z,67.60
2024-02-24T12:40:46.772Z,67.80
2024-02-24T12:43:13.851Z,66.30
2024-02-24T12:45:40.683Z,67.60
2024-02-24T12:48:08.563Z,66.20
2024-02-24T12:50:35.957Z,66.30
2024-02-24T12:53:07.336Z,66.60
2024-02-24T12:55:34.444Z,66.60
2024-02-24T12:58:01.549Z,68.30
2024-02-24T13:00:28.372Z,66.10
2024-02-24T13:02:57.299Z,66.40
2024-02-24T13:05:24.383Z,63.90
2024-02-24T13:07:53.079Z,62.00
2024-02-24T13:10:20.749Z,61.80
2024-02-24T13:12:47.637Z,60.80
2024-02-24T13:15:14.513Z,60.20
2024-02-24T13:17:41.260Z,59.90
2024-02-24T13:20:08.958Z,59.50
2024-02-24T13:22:41.274Z,59.50
2024-02-24T13:25:09.811Z,60.30
2024-02-24T13:27:36.658Z,60.00
2024-02-24T13:30:04.084Z,60.00
2024-02-24T13:32:31.034Z,59.20
2024-02-24T13:34:57.835Z,59.60
2024-02-24T13:37:24.648Z,59.10
2024-02-24T13:39:53.412Z,59.20
2024-02-24T13:42:20.280Z,59.90
2024-02-24T13:44:47.172Z,58.80
2024-02-24T13:47:16.080Z,60.10
2024-02-24T13:49:43.155Z,60.50
2024-02-24T13:52:09.995Z,59.50
2024-02-24T13:54:36.692Z,59.80
2024-02-24T13:57:03.806Z,59.80
2024-02-24T13:59:30.679Z,59.50
2024-02-24T14:01:58.631Z,58.70
2024-02-24T14:04:26.479Z,59.00
2024-02-24T14:06:53.459Z,59.20
2024-02-24T14:09:20.332Z,59.00
2024-02-24T14:11:47.242Z,59.40
2024-02-24T14:14:14.273Z,59.80
2024-02-24T14:16:46.589Z,60.30
2024-02-24T14:19:13.728Z,57.30
2024-02-24T14:21:40.613Z,57.20
2024-02-24T14:24:07.480Z,57.20
2024-02-24T14:26:34.315Z,57.70
2024-02-24T14:29:02.397Z,58.80
2024-02-24T14:31:31.535Z,58.50
2024-02-24T14:33:58.607Z,58.30
2024-02-24T14:36:25.608Z,57.90
2024-02-24T14:38:52.371Z,58.60
2024-02-24T14:41:19.231Z,58.90
2024-02-24T14:43:46.427Z,58.40
2024-02-24T14:46:13.276Z,59.20
2024-02-24T14:48:40.854Z,59.60
2024-02-24T14:51:07.850Z,59.30
2024-02-24T14:53:34.685Z,60.00
2024-02-24T14:56:01.699Z,59.20
2024-02-24T14:58:28.751Z,60.30
2024-02-24T15:00:55.672Z,59.90
2024-02-24T15:03:22.618Z,60.10
2024-02-24T15:05:49.459Z,58.90
2024-02-24T15:08:17.390Z,59.40
2024-02-24T15:10:44.260Z,60.00
2024-02-24T15:13:20.159Z,60.30
2024-02-24T15:15:50.304Z,60.50
2024-02-24T15:18:17.269Z,61.10
2024-02-24T15:20:44.790Z,60.60
2024-02-24T15:23:11.678Z,60.20
2024-02-24T15:25:38.415Z,60.40
2024-02-24T15:28:06.620Z,60.90
2024-02-24T15:30:33.478Z,61.30
2024-02-24T15:33:01.835Z,61.30
2024-02-24T15:35:28.728Z,61.20
2024-02-24T15:37:55.555Z,60.60
2024-02-24T15:40:22.271Z,61.40
2024-02-24T15:42:49.011Z,60.30
2024-02-24T15:45:15.693Z,60.30
2024-02-24T15:47:43.602Z,61.30
2024-02-24T15:50:11.039Z,62.80
2024-02-24T15:52:37.898Z,64.20
2024-02-24T15:55:04.908Z,64.30
2024-02-24T15:57:31.622Z,65.90
2024-02-24T15:59:58.467Z,67.90
2024-02-24T16:02:25.290Z,70.40
2024-02-24T16:04:52.212Z,73.80
2024-02-24T16:07:19.055Z,76.70
2024-02-24T16:09:46.531Z,79.00
2024-02-24T16:12:13.401Z,80.40
2024-02-24T16:14:40.255Z,80.80
2024-02-24T16:17:07.114Z,82.30
2024-02-24T16:19:34.135Z,82.90
2024-02-24T16:22:00.905Z,83.20
2024-02-24T16:24:29.285Z,83.40
2024-02-24T16:26:57.460Z,84.30
2024-02-24T16:29:24.421Z,85.00
2024-02-24T16:31:51.181Z,85.30
2024-02-24T16:34:18.317Z,85.30
2024-02-24T16:36:45.263Z,85.30
2024-02-24T16:39:12.670Z,85.40
2024-02-24T16:41:39.927Z,85.10
2024-02-24T16:44:09.811Z,85.10
2024-02-24T16:46:44.806Z,85.00
2024-02-24T16:49:11.766Z,86.00
2024-02-24T16:51:38.986Z,86.20
2024-02-24T16:54:05.755Z,86.70
2024-02-24T16:56:33.108Z,86.50
2024-02-24T16:59:00.680Z,87.30
2024-02-24T17:01:27.432Z,88.90
2024-02-24T17:03:54.188Z,90.00
2024-02-24T17:06:22.234Z,90.80
2024-02-24T17:08:49.255Z,91.60
2024-02-24T17:11:20.921Z,91.70
2024-02-24T17:13:48.076Z,92.50
2024-02-24T17:16:14.948Z,92.60
2024-02-24T17:18:42.063Z,92.80
2024-02-24T17:21:09.209Z,92.80
2024-02-24T17:23:38.731Z,93.00
2024-02-24T17:26:06.030Z,93.30
2024-02-24T17:28:33.033Z,93.60
2024-02-24T17:31:00.313Z,94.00
2024-02-24T17:33:27.182Z,94.60
2024-02-24T17:35:54.122Z,95.20
2024-02-24T17:38:25.165Z,95.60
2024-02-24T17:40:52.224Z,95.50
2024-02-24T17:43:19.034Z,95.70
2024-02-24T17:45:45.692Z,95.10
2024-02-24T17:48:12.597Z,94.40
2024-02-24T17:50:39.522Z,94.70
2024-02-24T17:53:06.322Z,94.50
2024-02-24T17:55:33.289Z,95.00
2024-02-24T17:58:00.108Z,95.80
2024-02-24T18:00:28.412Z,96.20
2024-02-24T18:02:55.639Z,96.10
2024-02-24T18:05:22.563Z,96.60
2024-02-24T18:07:53.796Z,97.10
2024-02-24T18:10:20.655Z,97.50
2024-02-24T18:12:47.700Z,97.50
2024-02-24T18:15:14.788Z,97.40
2024-02-24T18:17:41.964Z,97.50
2024-02-24T18:20:09.553Z,97.90
2024-02-24T18:22:37.152Z,98.10
2024-02-24T18:25:04.274Z,98.20
2024-02-24T18:27:31.732Z,98.50
2024-02-24T18:30:01.025Z,98.60
2024-02-24T18:32:29.647Z,98.30
2024-02-24T18:34:57.056Z,98.30
2024-02-24T18:37:24.110Z,98.70
2024-02-24T18:39:51.213Z,98.50
2024-02-24T18:42:21.629Z,98.20
2024-02-24T18:44:48.400Z,98.50
2024-02-24T18:47:15.549Z,98.20
2024-02-24T18:49:42.479Z,98.60
2024-02-24T18:52:11.473Z,98.60
2024-02-24T18:54:38.684Z,99.00
2024-02-24T18:57:05.819Z,99.10
2024-02-24T18:59:32.788Z,99.90
2024-02-24T19:01:59.726Z,99.90
2024-02-24T19:04:26.519Z,99.90
2024-02-24T19:06:53.349Z,99.90
2024-02-24T19:09:20.066Z,99.90
2024-02-24T19:11:47.403Z,99.90
2024-02-24T19:14:17.146Z,99.90
2024-02-24T19:16:44.153Z,99.90
2024-02-24T19:19:11.029Z,99.40
2024-02-24T19:21:37.931Z,99.60
2024-02-24T19:24:05.730Z,99.70
2024-02-24T19:26:32.642Z,99.90
2024-02-24T19:28:59.383Z,99.90
2024-02-24T19:31:26.195Z,99.50
2024-02-24T19:33:53.158Z,99.90
2024-02-24T19:36:20.079Z,99.90
2024-02-24T19:38:46.872Z,99.90
2024-02-24T19:41:15.043Z,99.90
2024-02-24T19:43:41.732Z,99.90
2024-02-24T19:46:08.483Z,99.90
2024-02-24T19:48:35.469Z,99.90
2024-02-24T19:51:03.809Z,99.90
2024-02-24T19:53:30.689Z,99.90
2024-02-24T19:55:57.465Z,99.90
2024-02-24T19:58:32.936Z,99.90
2024-02-24T20:01:02.065Z,99.90
2024-02-24T20:03:28.905Z,99.90
2024-02-24T20:05:55.745Z,99.90
2024-02-24T20:08:22.642Z,99.90
2024-02-24T20:10:49.493Z,99.90
2024-02-24T20:13:16.253Z,99.90
2024-02-24T20:15:43.016Z,99.90
2024-02-24T20:18:09.935Z,99.90
2024-02-24T20:20:36.808Z,99.90
2024-02-24T20:23:03.671Z,99.90
2024-02-24T20:25:30.424Z,99.90
2024-02-24T20:27:57.199Z,99.90
2024-02-24T20:30:23.936Z,99.90
2024-02-24T20:32:53.917Z,99.90
2024-02-24T20:35:21.247Z,99.90
2024-02-24T20:37:48.354Z,99.60
2024-02-24T20:40:15.547Z,99.80
2024-02-24T20:42:42.466Z,99.80
2024-02-24T20:45:09.761Z,99.90
2024-02-24T20:47:36.708Z,99.60
2024-02-24T20:50:03.737Z,99.40
2024-02-24T20:52:30.468Z,99.10
2024-02-24T20:54:57.261Z,98.90
2024-02-24T20:57:24.010Z,98.60
2024-02-24T20:59:51.813Z,99.00
2024-02-24T21:02:18.828Z,99.00
2024-02-24T21:04:45.746Z,99.00
2024-02-24T21:07:12.579Z,99.10
2024-02-24T21:09:39.386Z,99.20
2024-02-24T21:12:08.364Z,99.10
2024-02-24T21:14:35.115Z,98.80
2024-02-24T21:17:02.127Z,98.50
2024-02-24T21:19:29.178Z,98.50
2024-02-24T21:21:56.874Z,98.30
2024-02-24T21:24:23.758Z,98.20
2024-02-24T21:26:50.675Z,98.20
2024-02-24T21:29:17.677Z,98.00
2024-02-24T21:31:44.460Z,98.00
2024-02-24T21:34:11.527Z,97.80
2024-02-24T21:36:38.562Z,97.70
2024-02-24T21:39:05.626Z,97.90
2024-02-24T21:41:37.337Z,97.60
2024-02-24T21:44:05.390Z,97.70
2024-02-24T21:46:33.295Z,97.70
2024-02-24T21:49:00.711Z,97.80
2024-02-24T21:51:27.852Z,97.70
2024-02-24T21:53:54.750Z,97.70
2024-02-24T21:56:24.352Z,97.60
2024-02-24T21:58:51.460Z,97.50
2024-02-24T22:01:20.037Z,97.20
2024-02-24T22:03:47.174Z,97.30
2024-02-24T22:06:14.289Z,97.20
2024-02-24T22:08:41.274Z,97.00
2024-02-24T22:11:08.241Z,97.80
2024-02-24T22:13:35.298Z,97.90
2024-02-24T22:16:02.117Z,97.70
2024-02-24T22:18:29.242Z,97.60
2024-02-24T22:20:56.303Z,97.90
2024-02-24T22:23:23.140Z,97.90
2024-02-24T22:25:49.919Z,97.90
2024-02-24T22:28:16.905Z,98.10
2024-02-24T22:30:44.899Z,98.20
2024-02-24T22:33:11.932Z,98.30
2024-02-24T22:35:38.811Z,98.30
2024-02-24T22:38:05.646Z,98.30
2024-02-24T22:40:32.973Z,98.10
2024-02-24T22:43:00.033Z,97.80
2024-02-24T22:45:26.993Z,97.90
2024-02-24T22:47:54.017Z,97.90
2024-02-24T22:50:21.055Z,97.80
2024-02-24T22:52:50.976Z,97.70
2024-02-24T22:55:29.598Z,97.70
2024-02-24T22:58:24.487Z,97.60
2024-02-24T23:01:29.279Z,97.60
2024-02-24T23:04:20.212Z,97.70
2024-02-24T23:07:03.007Z,97.50
2024-02-24T23:09:55.009Z,97.90
2024-02-24T23:12:26.239Z,98.60
2024-02-24T23:14:55.883Z,99.70
2024-02-24T23:17:36.725Z,99.60
2024-02-24T23:20:31.252Z,99.90
2024-02-24T23:26:24.318Z,99.90
2024-02-24T23:29:00.427Z,99.90
2024-02-24T23:32:03.447Z,99.50
2024-02-24T23:34:30.350Z,99.10
2024-02-24T23:36:57.226Z,98.90
2024-02-24T23:39:24.161Z,98.70
2024-02-24T23:41:53.600Z,98.60
2024-02-24T23:44:21.056Z,98.60
2024-02-24T23:46:47.905Z,98.60
2024-02-24T23:49:16.870Z,98.70
2024-02-24T23:51:44.186Z,98.70
2024-02-24T23:54:10.966Z,98.60
2024-02-24T23:56:37.872Z,98.70
2024-02-24T23:59:04.711Z,99.00
